createdAt,value
2023-04-15T00:01:34.751Z,65.33
2023-04-15T00:16:36.650Z,65.02
2023-04-15T00:31:38.572Z,65.90
2023-04-15T00:46:41.629Z,67.48
2023-04-15T01:01:44.841Z,69.97
2023-04-15T01:16:47.191Z,66.47
2023-04-15T01:31:53.143Z,66.75
2023-04-15T01:46:55.340Z,66.84
2023-04-15T02:01:57.647Z,65.96
2023-04-15T02:17:07.277Z,66.71
2023-04-15T02:32:09.260Z,67.67
2023-04-15T02:47:11.859Z,68.10
2023-04-15T03:02:13.875Z,69.89
2023-04-15T03:17:16.050Z,68.51
2023-04-15T03:32:18.399Z,68.46
2023-04-15T03:47:20.375Z,70.66
2023-04-15T04:02:23.441Z,69.22
2023-04-15T04:17:25.707Z,62.26
2023-04-15T04:32:28.123Z,54.39
2023-04-15T04:47:30.504Z,50.72
2023-04-15T05:02:32.893Z,47.47
2023-04-15T05:17:35.545Z,49.57
2023-04-15T05:32:37.529Z,51.25
2023-04-15T05:47:39.626Z,54.96
2023-04-15T06:02:42.063Z,54.21
2023-04-15T06:17:44.150Z,51.66
2023-04-15T06:32:46.594Z,48.49
2023-04-15T06:47:48.708Z,45.01
2023-04-15T07:02:51.677Z,44.17
2023-04-15T07:17:53.695Z,43.59
2023-04-15T07:32:56.251Z,41.87
2023-04-15T07:47:58.375Z,43.95
2023-04-15T08:03:00.458Z,41.94
2023-04-15T08:18:02.677Z,41.34
2023-04-15T08:33:07.604Z,37.15
2023-04-15T08:48:14.213Z,34.59
2023-04-15T09:03:17.852Z,32.61
2023-04-15T09:18:36.478Z,31.27
2023-04-15T09:33:55.433Z,28.25
2023-04-15T09:49:11.506Z,28.53
2023-04-15T10:04:13.939Z,29.92
2023-04-15T10:19:19.428Z,29.19
2023-04-15T10:34:22.612Z,30.04
2023-04-15T10:49:26.283Z,29.07
2023-04-15T11:04:52.789Z,30.60
2023-04-15T11:19:55.032Z,31.12
2023-04-15T11:34:57.011Z,30.08
2023-04-15T11:50:17.861Z,30.86
2023-04-15T12:05:19.916Z,30.32
2023-04-15T12:20:26.251Z,29.43
2023-04-15T12:35:28.157Z,29.94
2023-04-15T12:50:30.056Z,30.23
2023-04-15T13:05:32.349Z,29.61
2023-04-15T13:20:34.289Z,29.91
2023-04-15T13:35:36.274Z,28.74
2023-04-15T13:50:39.572Z,28.40
2023-04-15T14:05:43.151Z,28.84
2023-04-15T14:20:45.166Z,28.65
2023-04-15T14:35:47.050Z,28.03
2023-04-15T14:50:49.161Z,28.12
2023-04-15T15:05:51.325Z,28.51
2023-04-15T15:20:53.456Z,28.27
2023-04-15T15:35:55.416Z,28.07
2023-04-15T15:50:57.374Z,28.98
2023-04-15T16:05:59.233Z,29.35
2023-04-15T16:21:01.242Z,30.39
2023-04-15T16:36:03.743Z,31.16
2023-04-15T16:51:05.982Z,31.52
2023-04-15T17:06:07.894Z,32.24
2023-04-15T17:21:09.765Z,33.22
2023-04-15T17:36:11.909Z,33.98
2023-04-15T17:51:13.904Z,34.65
2023-04-15T18:06:17.079Z,35.22
2023-04-15T18:21:18.982Z,35.53
2023-04-15T18:36:20.885Z,35.86
2023-04-15T18:51:22.854Z,35.89
2023-04-15T19:06:25.164Z,35.68
2023-04-15T19:21:27.991Z,35.63
2023-04-15T19:36:29.976Z,36.78
2023-04-15T19:51:32.022Z,41.63
2023-04-15T20:06:34.151Z,40.91
2023-04-15T20:21:36.531Z,40.59
2023-04-15T20:36:38.459Z,40.87
2023-04-15T20:51:40.370Z,41.01
2023-04-15T21:06:42.308Z,41.92
2023-04-15T21:21:44.174Z,41.81
2023-04-15T21:36:46.138Z,42.80
2023-04-15T21:51:48.219Z,43.93
2023-04-15T22:06:50.139Z,44.23
2023-04-15T22:21:52.215Z,45.49
2023-04-15T22:36:54.221Z,48.69
2023-04-15T22:51:56.154Z,54.09
2023-04-15T23:06:58.090Z,53.93
2023-04-15T23:21:59.961Z,52.51
2023-04-15T23:37:01.901Z,53.01
2023-04-15T23:52:04.239Z,51.96
